Washington Green, Connecticut
Current Conditions -  °F | °C
As of 5:55 PM on Tuesday 27 Jan 2015 (Local Time) from KOXC Reporting Station
Clear Clear  
Wind Chill: -1°   Ceiling: Unl
Heat Index: 16°   Visibility: 10mi
Dew Point: -8°   Wind: 18mph
Humidity: 35%   Direction: 340°NNW
Pressure: 29.63"   Gusts: 25mph
Location:  41.6326°N, 73.2874°W
Report Text: KOXC 272255Z 34016G22KT 10SM SKC M09/M22 A2963
Loading
Personal Weather Stations






























Interactive Weather Map New forecast layout! Learn more

10-Day Weather Forecast

Advertisements
Track Severe Weather on mobile